Nicole Leigh Reinauer — WCZ5696 — position and weather

sailwx.info

Track history (hours):
 
Tides and Currents Weather Stations Pressure Air Temp Water Temp Dewpoint Dewpoint Depression Visibility Wind Speed Wind Dir Waves Ship Positions

Nicole Leigh Reinauer

Owner: H A REINAUER INC, STATEN ISLAND, NY. More information available from US FCC via Universal Licensing System and Coast Guard Vessel Documentation Center.

Last reported at 2015-Jul-31 22:33 UTC. Time now 2015-Jul-31 23:32 UTC.
Position N 27°52' W 082°33'.

Length 167 m; draft 8 m.

Type: Tanker. MMSI: 366774330.

Date/timePositionNaut miles runAvg speedWind from/ knotsBaromVisibWave heightAir tempDewpointWater temp
2015-Jul-31 22:33N 27°52' W 082°33'0 0.0
2015-Jul-31 21:33N 27°52' W 082°33'0 0.0
2015-Jul-31 20:33N 27°52' W 082°33'0 0.0
2015-Jul-31 19:33N 27°52' W 082°33'0 0.0
2015-Jul-31 18:33N 27°52' W 082°33'0 0.0
2015-Jul-31 17:33N 27°52' W 082°33'0 0.0
2015-Jul-31 16:33N 27°52' W 082°33'0 0.0
2015-Jul-31 15:33N 27°52' W 082°33'0 0.0
2015-Jul-31 14:33N 27°52' W 082°33'0 0.0
2015-Jul-31 13:33N 27°52' W 082°33'0 0.0
2015-Jul-31 12:33N 27°52' W 082°33'0 0.0
2015-Jul-31 11:33N 27°52' W 082°33'0 0.0
2015-Jul-31 10:33N 27°52' W 082°33'0 0.0
2015-Jul-31 09:33N 27°52' W 082°33'4 4.4
2015-Jul-31 08:33N 27°47' W 082°33'194 4.4
2015-Jul-29 12:33N 25°29' W 080°01'8 8.3
2015-Jul-29 11:33N 25°37' W 080°01'8 8.0
2015-Jul-29 10:33N 25°45' W 080°02'8 8.0
2015-Jul-29 09:33N 25°53' W 080°03'9 8.5
2015-Jul-29 08:33N 26°01' W 080°03'6 5.8
2015-Jul-29 07:33N 26°06' W 080°07'0 0.0
2015-Jul-29 06:27N 26°06' W 080°07'0 0.0
2015-Jul-29 05:27N 26°06' W 080°07'0 0.0
2015-Jul-29 04:30N 26°06' W 080°07'0 0.0
2015-Jul-29 03:33N 26°06' W 080°07'0 0.0
2015-Jul-29 02:33N 26°06' W 080°07'0 0.0
2015-Jul-29 01:33N 26°06' W 080°07'0 0.0
2015-Jul-29 00:33N 26°06' W 080°07'0 0.0
2015-Jul-28 23:33N 26°06' W 080°07'0 0.0
2015-Jul-28 22:33N 26°06' W 080°07'0 0.0
2015-Jul-28 21:33N 26°06' W 080°07'0 0.0
2015-Jul-28 20:24N 26°06' W 080°07'0 0.0
2015-Jul-28 19:24N 26°06' W 080°07'0 0.0
2015-Jul-28 18:33N 26°06' W 080°07'0 0.0
2015-Jul-28 17:33N 26°06' W 080°07'0 0.0
2015-Jul-28 16:33N 26°06' W 080°07'0 0.0
2015-Jul-28 15:33N 26°06' W 080°07'0 0.0
2015-Jul-28 14:33N 26°06' W 080°07'0 0.0
2015-Jul-28 13:33N 26°06' W 080°07'0 0.0
2015-Jul-28 12:33N 26°06' W 080°07'2 2.0
2015-Jul-28 11:33N 26°06' W 080°05'8 7.7
2015-Jul-28 10:33N 25°58' W 080°03'1515.4
2015-Jul-28 09:34N 25°43' W 080°02'1615.6
2015-Jul-28 08:34N 25°27' W 080°01'  
2015-Jul-25 23:14N 29°52' W 089°55'812.1
2015-Jul-25 22:32N 29°57' W 090°02'17 0.5
2015-Jul-24 10:33N 29°56' W 090°22'18 0.4
2015-Jul-22 15:05N 29°57' W 090°01'0 0.0
2015-Jul-22 14:11N 29°57' W 090°01'  
Track history (hours):
 
Tides and Currents Weather Stations Pressure Air Temp Water Temp Dewpoint Dewpoint Depression Visibility Wind Speed Wind Dir Waves Ship Positions

Nicole Leigh Reinauer

Owner: H A REINAUER INC, STATEN ISLAND, NY. More information available from US FCC via Universal Licensing System and Coast Guard Vessel Documentation Center.

Last reported at 2015-Jul-31 22:33 UTC. Time now 2015-Jul-31 23:32 UTC.
Position N 27°52' W 082°33'.

Length 167 m; draft 8 m.

Type: Tanker. MMSI: 366774330.

Date/timePositionNaut miles runAvg speedWind from/ knotsBaromVisibWave heightAir tempDewpointWater temp
2015-Jul-31 22:33N 27°52' W 082°33'0 0.0
2015-Jul-31 21:33N 27°52' W 082°33'0 0.0
2015-Jul-31 20:33N 27°52' W 082°33'0 0.0
2015-Jul-31 19:33N 27°52' W 082°33'0 0.0
2015-Jul-31 18:33N 27°52' W 082°33'0 0.0
2015-Jul-31 17:33N 27°52' W 082°33'0 0.0
2015-Jul-31 16:33N 27°52' W 082°33'0 0.0
2015-Jul-31 15:33N 27°52' W 082°33'0 0.0
2015-Jul-31 14:33N 27°52' W 082°33'0 0.0
2015-Jul-31 13:33N 27°52' W 082°33'0 0.0
2015-Jul-31 12:33N 27°52' W 082°33'0 0.0
2015-Jul-31 11:33N 27°52' W 082°33'0 0.0
2015-Jul-31 10:33N 27°52' W 082°33'0 0.0
2015-Jul-31 09:33N 27°52' W 082°33'4 4.4
2015-Jul-31 08:33N 27°47' W 082°33'194 4.4
2015-Jul-29 12:33N 25°29' W 080°01'8 8.3
2015-Jul-29 11:33N 25°37' W 080°01'8 8.0
2015-Jul-29 10:33N 25°45' W 080°02'8 8.0
2015-Jul-29 09:33N 25°53' W 080°03'9 8.5
2015-Jul-29 08:33N 26°01' W 080°03'6 5.8
2015-Jul-29 07:33N 26°06' W 080°07'0 0.0
2015-Jul-29 06:27N 26°06' W 080°07'0 0.0
2015-Jul-29 05:27N 26°06' W 080°07'0 0.0
2015-Jul-29 04:30N 26°06' W 080°07'0 0.0
2015-Jul-29 03:33N 26°06' W 080°07'0 0.0
2015-Jul-29 02:33N 26°06' W 080°07'0 0.0
2015-Jul-29 01:33N 26°06' W 080°07'0 0.0
2015-Jul-29 00:33N 26°06' W 080°07'0 0.0
2015-Jul-28 23:33N 26°06' W 080°07'0 0.0
2015-Jul-28 22:33N 26°06' W 080°07'0 0.0
2015-Jul-28 21:33N 26°06' W 080°07'0 0.0
2015-Jul-28 20:24N 26°06' W 080°07'0 0.0
2015-Jul-28 19:24N 26°06' W 080°07'0 0.0
2015-Jul-28 18:33N 26°06' W 080°07'0 0.0
2015-Jul-28 17:33N 26°06' W 080°07'0 0.0
2015-Jul-28 16:33N 26°06' W 080°07'0 0.0
2015-Jul-28 15:33N 26°06' W 080°07'0 0.0
2015-Jul-28 14:33N 26°06' W 080°07'0 0.0
2015-Jul-28 13:33N 26°06' W 080°07'0 0.0
2015-Jul-28 12:33N 26°06' W 080°07'2 2.0
2015-Jul-28 11:33N 26°06' W 080°05'8 7.7
2015-Jul-28 10:33N 25°58' W 080°03'1515.4
2015-Jul-28 09:34N 25°43' W 080°02'1615.6
2015-Jul-28 08:34N 25°27' W 080°01'  
2015-Jul-25 23:14N 29°52' W 089°55'812.1
2015-Jul-25 22:32N 29°57' W 090°02'17 0.5
2015-Jul-24 10:33N 29°56' W 090°22'18 0.4
2015-Jul-22 15:05N 29°57' W 090°01'0 0.0
2015-Jul-22 14:11N 29°57' W 090°01'  

Dump ship's entire track history